sensor_id;sensor_type;location;lat;lon;timestamp;P1;durP1;ratioP1;P2;durP2;ratioP2
15889;SDS011;8043;49.388;12.128;2024-02-23T00:02:44;0.45;;;0.35;;
15889;SDS011;8043;49.388;12.128;2024-02-23T00:07:47;0.88;;;0.30;;
15889;SDS011;8043;49.388;12.128;2024-02-23T00:12:49;1.47;;;0.62;;
15889;SDS011;8043;49.388;12.128;2024-02-23T00:17:51;0.30;;;0.30;;
15889;SDS011;8043;49.388;12.128;2024-02-23T00:22:54;0.30;;;0.30;;
15889;SDS011;8043;49.388;12.128;2024-02-23T00:27:56;0.40;;;0.40;;
15889;SDS011;8043;49.388;12.128;2024-02-23T00:32:58;0.37;;;0.37;;
15889;SDS011;8043;49.388;12.128;2024-02-23T00:38:01;0.40;;;0.40;;
15889;SDS011;8043;49.388;12.128;2024-02-23T00:43:03;5.00;;;1.87;;
15889;SDS011;8043;49.388;12.128;2024-02-23T00:48:06;5.95;;;1.50;;
15889;SDS011;8043;49.388;12.128;2024-02-23T00:53:09;3.37;;;1.32;;
15889;SDS011;8043;49.388;12.128;2024-02-23T00:58:11;0.20;;;0.20;;
15889;SDS011;8043;49.388;12.128;2024-02-23T01:03:13;0.30;;;0.30;;
15889;SDS011;8043;49.388;12.128;2024-02-23T01:08:15;1.37;;;0.90;;
15889;SDS011;8043;49.388;12.128;2024-02-23T01:13:18;0.30;;;0.30;;
15889;SDS011;8043;49.388;12.128;2024-02-23T01:18:20;0.10;;;0.10;;
15889;SDS011;8043;49.388;12.128;2024-02-23T01:23:22;0.20;;;0.20;;
15889;SDS011;8043;49.388;12.128;2024-02-23T01:28:25;0.10;;;0.10;;
15889;SDS011;8043;49.388;12.128;2024-02-23T01:33:27;0.10;;;0.10;;
15889;SDS011;8043;49.388;12.128;2024-02-23T01:38:29;0.20;;;0.20;;
15889;SDS011;8043;49.388;12.128;2024-02-23T01:43:33;1.45;;;0.40;;
15889;SDS011;8043;49.388;12.128;2024-02-23T01:48:35;0.20;;;0.20;;
15889;SDS011;8043;49.388;12.128;2024-02-23T01:53:37;1.45;;;0.45;;
15889;SDS011;8043;49.388;12.128;2024-02-23T01:58:39;0.20;;;0.20;;
15889;SDS011;8043;49.388;12.128;2024-02-23T02:03:42;0.28;;;0.28;;
15889;SDS011;8043;49.388;12.128;2024-02-23T02:08:44;0.40;;;0.30;;
15889;SDS011;8043;49.388;12.128;2024-02-23T02:13:48;0.20;;;0.20;;
15889;SDS011;8043;49.388;12.128;2024-02-23T02:18:50;0.10;;;0.10;;
15889;SDS011;8043;49.388;12.128;2024-02-23T02:23:53;0.37;;;0.28;;
15889;SDS011;8043;49.388;12.128;2024-02-23T02:28:55;0.13;;;0.13;;
15889;SDS011;8043;49.388;12.128;2024-02-23T02:33:57;0.75;;;0.75;;
15889;SDS011;8043;49.388;12.128;2024-02-23T02:44:01;0.88;;;0.35;;
15889;SDS011;8043;49.388;12.128;2024-02-23T02:49:03;0.10;;;0.10;;
15889;SDS011;8043;49.388;12.128;2024-02-23T02:59:07;0.17;;;0.17;;
15889;SDS011;8043;49.388;12.128;2024-02-23T03:04:10;0.20;;;0.20;;
15889;SDS011;8043;49.388;12.128;2024-02-23T03:09:13;0.30;;;0.30;;
15889;SDS011;8043;49.388;12.128;2024-02-23T03:14:15;1.92;;;0.90;;
15889;SDS011;8043;49.388;12.128;2024-02-23T03:19:19;0.62;;;0.35;;
15889;SDS011;8043;49.388;12.128;2024-02-23T03:24:23;0.23;;;0.23;;
15889;SDS011;8043;49.388;12.128;2024-02-23T03:29:25;0.25;;;0.25;;
15889;SDS011;8043;49.388;12.128;2024-02-23T03:34:31;0.75;;;0.75;;
15889;SDS011;8043;49.388;12.128;2024-02-23T03:39:33;0.35;;;0.35;;
15889;SDS011;8043;49.388;12.128;2024-02-23T03:44:37;0.42;;;0.37;;
15889;SDS011;8043;49.388;12.128;2024-02-23T03:49:39;0.20;;;0.20;;
15889;SDS011;8043;49.388;12.128;2024-02-23T03:54:41;0.50;;;0.50;;
15889;SDS011;8043;49.388;12.128;2024-02-23T03:59:58;0.53;;;0.53;;
15889;SDS011;8043;49.388;12.128;2024-02-23T04:04:56;5.42;;;0.80;;
15889;SDS011;8043;49.388;12.128;2024-02-23T04:09:59;0.50;;;0.37;;
15889;SDS011;8043;49.388;12.128;2024-02-23T04:15:01;0.72;;;0.60;;
15889;SDS011;8043;49.388;12.128;2024-02-23T04:20:07;6.55;;;1.90;;
15889;SDS011;8043;49.388;12.128;2024-02-23T04:25:14;0.42;;;0.42;;
15889;SDS011;8043;49.388;12.128;2024-02-23T04:30:16;2.42;;;0.60;;
15889;SDS011;8043;49.388;12.128;2024-02-23T04:35:18;1.12;;;0.65;;
15889;SDS011;8043;49.388;12.128;2024-02-23T04:40:21;0.30;;;0.30;;
15889;SDS011;8043;49.388;12.128;2024-02-23T04:45:23;2.00;;;0.80;;
15889;SDS011;8043;49.388;12.128;2024-02-23T04:50:26;1.02;;;0.72;;
15889;SDS011;8043;49.388;12.128;2024-02-23T04:55:28;0.40;;;0.40;;
15889;SDS011;8043;49.388;12.128;2024-02-23T05:00:30;2.22;;;0.37;;
15889;SDS011;8043;49.388;12.128;2024-02-23T05:05:34;0.20;;;0.20;;
15889;SDS011;8043;49.388;12.128;2024-02-23T05:10:37;0.50;;;0.50;;
15889;SDS011;8043;49.388;12.128;2024-02-23T05:15:39;0.42;;;0.40;;
15889;SDS011;8043;49.388;12.128;2024-02-23T05:20:41;1.95;;;0.82;;
15889;SDS011;8043;49.388;12.128;2024-02-23T05:25:44;0.33;;;0.33;;
15889;SDS011;8043;49.388;12.128;2024-02-23T05:30:46;7.28;;;1.35;;
15889;SDS011;8043;49.388;12.128;2024-02-23T05:35:48;6.90;;;0.93;;
15889;SDS011;8043;49.388;12.128;2024-02-23T05:40:51;1.75;;;0.78;;
15889;SDS011;8043;49.388;12.128;2024-02-23T05:45:53;2.60;;;0.88;;
15889;SDS011;8043;49.388;12.128;2024-02-23T05:50:57;0.72;;;0.70;;
15889;SDS011;8043;49.388;12.128;2024-02-23T05:55:59;0.20;;;0.20;;
15889;SDS011;8043;49.388;12.128;2024-02-23T06:01:01;2.42;;;0.60;;
15889;SDS011;8043;49.388;12.128;2024-02-23T06:06:07;0.60;;;0.57;;
15889;SDS011;8043;49.388;12.128;2024-02-23T06:11:09;2.37;;;0.80;;
15889;SDS011;8043;49.388;12.128;2024-02-23T06:16:11;0.70;;;0.70;;
15889;SDS011;8043;49.388;12.128;2024-02-23T06:21:14;6.47;;;1.22;;
15889;SDS011;8043;49.388;12.128;2024-02-23T06:26:18;1.70;;;0.75;;
15889;SDS011;8043;49.388;12.128;2024-02-23T06:31:20;0.93;;;0.65;;
15889;SDS011;8043;49.388;12.128;2024-02-23T06:36:22;5.33;;;1.20;;
15889;SDS011;8043;49.388;12.128;2024-02-23T06:41:24;0.90;;;0.47;;
15889;SDS011;8043;49.388;12.128;2024-02-23T06:46:27;1.55;;;1.15;;
15889;SDS011;8043;49.388;12.128;2024-02-23T06:51:29;3.52;;;0.62;;
15889;SDS011;8043;49.388;12.128;2024-02-23T06:56:32;0.70;;;0.50;;
15889;SDS011;8043;49.388;12.128;2024-02-23T07:01:35;0.65;;;0.30;;
15889;SDS011;8043;49.388;12.128;2024-02-23T07:06:37;2.95;;;1.30;;
15889;SDS011;8043;49.388;12.128;2024-02-23T07:11:40;1.02;;;0.50;;
15889;SDS011;8043;49.388;12.128;2024-02-23T07:16:44;0.35;;;0.30;;
15889;SDS011;8043;49.388;12.128;2024-02-23T07:21:46;0.33;;;0.30;;
15889;SDS011;8043;49.388;12.128;2024-02-23T07:31:50;0.25;;;0.25;;
15889;SDS011;8043;49.388;12.128;2024-02-23T07:36:53;0.55;;;0.55;;
15889;SDS011;8043;49.388;12.128;2024-02-23T07:41:55;4.67;;;1.10;;
15889;SDS011;8043;49.388;12.128;2024-02-23T07:46:59;1.02;;;0.75;;
15889;SDS011;8043;49.388;12.128;2024-02-23T07:52:03;2.85;;;0.93;;
15889;SDS011;8043;49.388;12.128;2024-02-23T07:57:06;0.50;;;0.50;;
15889;SDS011;8043;49.388;12.128;2024-02-23T08:07:10;0.47;;;0.47;;
15889;SDS011;8043;49.388;12.128;2024-02-23T08:12:12;2.95;;;1.25;;
15889;SDS011;8043;49.388;12.128;2024-02-23T08:17:14;0.90;;;0.75;;
15889;SDS011;8043;49.388;12.128;2024-02-23T08:22:16;0.55;;;0.55;;
15889;SDS011;8043;49.388;12.128;2024-02-23T08:27:19;0.82;;;0.82;;
15889;SDS011;8043;49.388;12.128;2024-02-23T08:32:21;1.20;;;0.95;;
15889;SDS011;8043;49.388;12.128;2024-02-23T08:37:23;1.92;;;1.52;;
15889;SDS011;8043;49.388;12.128;2024-02-23T08:42:27;2.42;;;0.90;;
15889;SDS011;8043;49.388;12.128;2024-02-23T08:47:29;2.00;;;0.50;;
15889;SDS011;8043;49.388;12.128;2024-02-23T08:52:36;7.70;;;1.57;;
15889;SDS011;8043;49.388;12.128;2024-02-23T08:57:38;6.72;;;1.65;;
15889;SDS011;8043;49.388;12.128;2024-02-23T09:02:40;3.10;;;0.85;;
15889;SDS011;8043;49.388;12.128;2024-02-23T09:07:43;0.60;;;0.60;;
15889;SDS011;8043;49.388;12.128;2024-02-23T09:17:47;1.27;;;0.40;;
15889;SDS011;8043;49.388;12.128;2024-02-23T09:22:50;0.40;;;0.40;;
15889;SDS011;8043;49.388;12.128;2024-02-23T09:27:52;0.40;;;0.40;;
15889;SDS011;8043;49.388;12.128;2024-02-23T09:32:59;1.25;;;0.68;;
15889;SDS011;8043;49.388;12.128;2024-02-23T09:38:01;0.40;;;0.40;;
15889;SDS011;8043;49.388;12.128;2024-02-23T09:43:03;4.15;;;0.75;;
15889;SDS011;8043;49.388;12.128;2024-02-23T09:48:07;0.30;;;0.30;;
15889;SDS011;8043;49.388;12.128;2024-02-23T09:53:10;1.30;;;0.50;;
15889;SDS011;8043;49.388;12.128;2024-02-23T09:58:13;1.75;;;0.68;;
15889;SDS011;8043;49.388;12.128;2024-02-23T10:03:17;12.55;;;3.15;;
15889;SDS011;8043;49.388;12.128;2024-02-23T10:08:20;3.27;;;2.27;;
15889;SDS011;8043;49.388;12.128;2024-02-23T10:13:23;2.87;;;1.52;;
15889;SDS011;8043;49.388;12.128;2024-02-23T10:18:25;0.75;;;0.68;;
15889;SDS011;8043;49.388;12.128;2024-02-23T10:28:30;0.23;;;0.23;;
15889;SDS011;8043;49.388;12.128;2024-02-23T10:33:32;0.50;;;0.50;;
15889;SDS011;8043;49.388;12.128;2024-02-23T10:38:34;0.82;;;0.33;;
15889;SDS011;8043;49.388;12.128;2024-02-23T10:43:46;1.12;;;1.02;;
15889;SDS011;8043;49.388;12.128;2024-02-23T10:48:49;0.40;;;0.40;;
15889;SDS011;8043;49.388;12.128;2024-02-23T10:53:52;0.40;;;0.40;;
15889;SDS011;8043;49.388;12.128;2024-02-23T10:58:55;2.22;;;0.85;;
15889;SDS011;8043;49.388;12.128;2024-02-23T11:03:57;1.55;;;0.78;;
15889;SDS011;8043;49.388;12.128;2024-02-23T11:09:06;2.57;;;1.03;;
15889;SDS011;8043;49.388;12.128;2024-02-23T11:14:09;2.40;;;0.50;;
15889;SDS011;8043;49.388;12.128;2024-02-23T11:19:12;1.40;;;0.75;;
15889;SDS011;8043;49.388;12.128;2024-02-23T11:24:15;0.68;;;0.68;;
15889;SDS011;8043;49.388;12.128;2024-02-23T11:29:18;12.58;;;1.02;;
15889;SDS011;8043;49.388;12.128;2024-02-23T11:34:23;6.25;;;0.72;;
15889;SDS011;8043;49.388;12.128;2024-02-23T11:39:27;2.52;;;1.00;;
15889;SDS011;8043;49.388;12.128;2024-02-23T11:44:31;3.47;;;1.00;;
15889;SDS011;8043;49.388;12.128;2024-02-23T11:49:33;1.98;;;0.75;;
15889;SDS011;8043;49.388;12.128;2024-02-23T11:54:36;0.60;;;0.60;;
15889;SDS011;8043;49.388;12.128;2024-02-23T11:59:39;0.40;;;0.40;;
15889;SDS011;8043;49.388;12.128;2024-02-23T12:04:43;1.00;;;0.93;;
15889;SDS011;8043;49.388;12.128;2024-02-23T12:09:45;0.75;;;0.40;;
15889;SDS011;8043;49.388;12.128;2024-02-23T12:14:47;0.68;;;0.40;;
15889;SDS011;8043;49.388;12.128;2024-02-23T12:19:49;2.80;;;1.22;;
15889;SDS011;8043;49.388;12.128;2024-02-23T12:24:52;0.72;;;0.70;;
15889;SDS011;8043;49.388;12.128;2024-02-23T12:29:54;0.65;;;0.65;;
15889;SDS011;8043;49.388;12.128;2024-02-23T12:34:57;4.08;;;0.60;;
15889;SDS011;8043;49.388;12.128;2024-02-23T12:39:59;0.75;;;0.47;;
15889;SDS011;8043;49.388;12.128;2024-02-23T12:45:01;2.00;;;1.05;;
15889;SDS011;8043;49.388;12.128;2024-02-23T12:50:04;9.05;;;2.02;;
15889;SDS011;8043;49.388;12.128;2024-02-23T12:55:08;0.80;;;0.80;;
15889;SDS011;8043;49.388;12.128;2024-02-23T13:00:14;1.45;;;1.20;;
15889;SDS011;8043;49.388;12.128;2024-02-23T13:05:17;4.37;;;2.47;;
15889;SDS011;8043;49.388;12.128;2024-02-23T13:10:19;5.60;;;1.50;;
15889;SDS011;8043;49.388;12.128;2024-02-23T13:15:25;2.02;;;1.10;;
15889;SDS011;8043;49.388;12.128;2024-02-23T13:20:27;1.32;;;0.93;;
15889;SDS011;8043;49.388;12.128;2024-02-23T13:25:29;0.40;;;0.40;;
15889;SDS011;8043;49.388;12.128;2024-02-23T13:35:35;1.27;;;0.40;;
15889;SDS011;8043;49.388;12.128;2024-02-23T13:40:39;2.25;;;0.90;;
15889;SDS011;8043;49.388;12.128;2024-02-23T13:45:48;0.65;;;0.65;;
15889;SDS011;8043;49.388;12.128;2024-02-23T13:50:51;0.55;;;0.55;;
15889;SDS011;8043;49.388;12.128;2024-02-23T13:55:54;1.32;;;1.02;;
15889;SDS011;8043;49.388;12.128;2024-02-23T14:00:56;1.55;;;0.60;;
15889;SDS011;8043;49.388;12.128;2024-02-23T14:05:59;0.55;;;0.55;;
15889;SDS011;8043;49.388;12.128;2024-02-23T14:11:02;0.60;;;0.42;;
15889;SDS011;8043;49.388;12.128;2024-02-23T14:16:12;0.90;;;0.72;;
15889;SDS011;8043;49.388;12.128;2024-02-23T14:21:11;1.50;;;0.85;;
15889;SDS011;8043;49.388;12.128;2024-02-23T14:26:14;0.50;;;0.50;;
15889;SDS011;8043;49.388;12.128;2024-02-23T14:31:17;4.58;;;0.80;;
15889;SDS011;8043;49.388;12.128;2024-02-23T14:36:19;0.37;;;0.37;;
15889;SDS011;8043;49.388;12.128;2024-02-23T14:41:22;0.78;;;0.55;;
15889;SDS011;8043;49.388;12.128;2024-02-23T14:46:24;0.90;;;0.65;;
15889;SDS011;8043;49.388;12.128;2024-02-23T14:51:27;0.72;;;0.72;;
15889;SDS011;8043;49.388;12.128;2024-02-23T14:56:29;1.07;;;1.00;;
15889;SDS011;8043;49.388;12.128;2024-02-23T15:01:32;8.88;;;1.57;;
15889;SDS011;8043;49.388;12.128;2024-02-23T15:06:35;0.82;;;0.78;;
15889;SDS011;8043;49.388;12.128;2024-02-23T15:11:38;4.37;;;1.50;;
15889;SDS011;8043;49.388;12.128;2024-02-23T15:16:41;1.17;;;1.07;;
15889;SDS011;8043;49.388;12.128;2024-02-23T15:21:44;3.15;;;0.95;;
15889;SDS011;8043;49.388;12.128;2024-02-23T15:26:46;2.02;;;1.32;;
15889;SDS011;8043;49.388;12.128;2024-02-23T15:31:48;4.35;;;1.52;;
15889;SDS011;8043;49.388;12.128;2024-02-23T15:36:51;0.65;;;0.57;;
15889;SDS011;8043;49.388;12.128;2024-02-23T15:41:55;2.85;;;1.15;;
15889;SDS011;8043;49.388;12.128;2024-02-23T15:46:57;1.45;;;0.98;;
15889;SDS011;8043;49.388;12.128;2024-02-23T15:51:59;3.60;;;1.25;;
15889;SDS011;8043;49.388;12.128;2024-02-23T15:57:02;1.05;;;0.70;;
15889;SDS011;8043;49.388;12.128;2024-02-23T16:02:04;1.50;;;1.05;;
15889;SDS011;8043;49.388;12.128;2024-02-23T16:07:08;1.80;;;1.15;;
15889;SDS011;8043;49.388;12.128;2024-02-23T16:12:10;0.85;;;0.85;;
15889;SDS011;8043;49.388;12.128;2024-02-23T16:17:14;2.08;;;1.52;;
15889;SDS011;8043;49.388;12.128;2024-02-23T16:22:16;0.50;;;0.50;;
15889;SDS011;8043;49.388;12.128;2024-02-23T16:27:18;1.02;;;0.88;;
15889;SDS011;8043;49.388;12.128;2024-02-23T16:32:21;3.92;;;1.02;;
15889;SDS011;8043;49.388;12.128;2024-02-23T16:37:23;0.82;;;0.72;;
15889;SDS011;8043;49.388;12.128;2024-02-23T16:42:25;0.72;;;0.72;;
15889;SDS011;8043;49.388;12.128;2024-02-23T16:47:27;3.10;;;0.93;;
15889;SDS011;8043;49.388;12.128;2024-02-23T16:52:30;6.67;;;1.77;;
15889;SDS011;8043;49.388;12.128;2024-02-23T16:57:33;5.67;;;1.82;;
15889;SDS011;8043;49.388;12.128;2024-02-23T17:02:36;4.75;;;2.45;;
15889;SDS011;8043;49.388;12.128;2024-02-23T17:07:38;3.05;;;1.37;;
15889;SDS011;8043;49.388;12.128;2024-02-23T17:12:41;0.57;;;0.57;;
15889;SDS011;8043;49.388;12.128;2024-02-23T17:17:45;0.90;;;0.90;;
15889;SDS011;8043;49.388;12.128;2024-02-23T17:22:49;2.87;;;0.82;;
15889;SDS011;8043;49.388;12.128;2024-02-23T17:27:51;1.25;;;0.95;;
15889;SDS011;8043;49.388;12.128;2024-02-23T17:32:53;3.37;;;1.25;;
15889;SDS011;8043;49.388;12.128;2024-02-23T17:37:55;3.55;;;1.17;;
15889;SDS011;8043;49.388;12.128;2024-02-23T17:42:58;0.85;;;0.47;;
15889;SDS011;8043;49.388;12.128;2024-02-23T17:48:00;1.17;;;0.85;;
15889;SDS011;8043;49.388;12.128;2024-02-23T17:53:02;5.20;;;2.20;;
15889;SDS011;8043;49.388;12.128;2024-02-23T17:58:05;24.67;;;7.45;;
15889;SDS011;8043;49.388;12.128;2024-02-23T18:03:07;10.88;;;4.37;;
15889;SDS011;8043;49.388;12.128;2024-02-23T18:08:09;9.85;;;2.75;;
15889;SDS011;8043;49.388;12.128;2024-02-23T18:13:12;3.72;;;2.15;;
15889;SDS011;8043;49.388;12.128;2024-02-23T18:18:14;11.20;;;1.72;;
15889;SDS011;8043;49.388;12.128;2024-02-23T18:23:21;1.30;;;1.20;;
15889;SDS011;8043;49.388;12.128;2024-02-23T18:28:23;1.12;;;1.00;;
15889;SDS011;8043;49.388;12.128;2024-02-23T18:33:26;1.35;;;1.20;;
15889;SDS011;8043;49.388;12.128;2024-02-23T18:38:30;1.12;;;0.90;;
15889;SDS011;8043;49.388;12.128;2024-02-23T18:43:38;2.95;;;1.80;;
15889;SDS011;8043;49.388;12.128;2024-02-23T18:48:36;2.77;;;2.08;;
15889;SDS011;8043;49.388;12.128;2024-02-23T18:53:39;7.70;;;2.22;;
15889;SDS011;8043;49.388;12.128;2024-02-23T18:58:41;1.57;;;1.45;;
15889;SDS011;8043;49.388;12.128;2024-02-23T19:03:43;2.80;;;1.42;;
15889;SDS011;8043;49.388;12.128;2024-02-23T19:08:46;1.70;;;1.40;;
15889;SDS011;8043;49.388;12.128;2024-02-23T19:18:50;1.05;;;0.80;;
15889;SDS011;8043;49.388;12.128;2024-02-23T19:23:52;3.37;;;0.95;;
15889;SDS011;8043;49.388;12.128;2024-02-23T19:28:54;1.25;;;0.70;;
15889;SDS011;8043;49.388;12.128;2024-02-23T19:33:57;0.80;;;0.80;;
15889;SDS011;8043;49.388;12.128;2024-02-23T19:39:02;0.62;;;0.62;;
15889;SDS011;8043;49.388;12.128;2024-02-23T19:44:06;2.15;;;0.98;;
15889;SDS011;8043;49.388;12.128;2024-02-23T19:49:09;1.82;;;1.00;;
15889;SDS011;8043;49.388;12.128;2024-02-23T19:54:12;1.47;;;1.20;;
15889;SDS011;8043;49.388;12.128;2024-02-23T19:59:14;8.38;;;1.55;;
15889;SDS011;8043;49.388;12.128;2024-02-23T20:04:17;4.47;;;1.77;;
15889;SDS011;8043;49.388;12.128;2024-02-23T20:09:21;4.83;;;1.27;;
15889;SDS011;8043;49.388;12.128;2024-02-23T20:19:25;1.12;;;1.02;;
15889;SDS011;8043;49.388;12.128;2024-02-23T20:24:27;0.85;;;0.85;;
15889;SDS011;8043;49.388;12.128;2024-02-23T20:29:30;0.53;;;0.53;;
15889;SDS011;8043;49.388;12.128;2024-02-23T20:34:32;0.82;;;0.72;;
15889;SDS011;8043;49.388;12.128;2024-02-23T20:39:34;1.65;;;1.17;;
15889;SDS011;8043;49.388;12.128;2024-02-23T20:44:36;1.12;;;1.00;;
15889;SDS011;8043;49.388;12.128;2024-02-23T20:54:41;1.57;;;1.05;;
15889;SDS011;8043;49.388;12.128;2024-02-23T20:59:45;1.65;;;1.37;;
15889;SDS011;8043;49.388;12.128;2024-02-23T21:04:47;7.85;;;1.70;;
15889;SDS011;8043;49.388;12.128;2024-02-23T21:09:50;1.77;;;0.95;;
15889;SDS011;8043;49.388;12.128;2024-02-23T21:14:52;4.72;;;1.25;;
15889;SDS011;8043;49.388;12.128;2024-02-23T21:24:57;1.60;;;1.35;;
15889;SDS011;8043;49.388;12.128;2024-02-23T21:29:59;8.65;;;2.20;;
15889;SDS011;8043;49.388;12.128;2024-02-23T21:35:01;4.72;;;2.77;;
15889;SDS011;8043;49.388;12.128;2024-02-23T21:40:05;6.45;;;2.95;;
15889;SDS011;8043;49.388;12.128;2024-02-23T21:45:08;12.28;;;2.45;;
15889;SDS011;8043;49.388;12.128;2024-02-23T21:50:10;10.50;;;3.22;;
15889;SDS011;8043;49.388;12.128;2024-02-23T21:55:14;7.08;;;2.70;;
15889;SDS011;8043;49.388;12.128;2024-02-23T22:00:17;5.90;;;2.20;;
15889;SDS011;8043;49.388;12.128;2024-02-23T22:05:20;4.55;;;2.60;;
15889;SDS011;8043;49.388;12.128;2024-02-23T22:10:22;5.65;;;2.15;;
15889;SDS011;8043;49.388;12.128;2024-02-23T22:15:24;9.58;;;3.67;;
15889;SDS011;8043;49.388;12.128;2024-02-23T22:20:27;5.28;;;3.08;;
15889;SDS011;8043;49.388;12.128;2024-02-23T22:25:29;2.90;;;2.60;;
15889;SDS011;8043;49.388;12.128;2024-02-23T22:30:31;2.00;;;1.80;;
15889;SDS011;8043;49.388;12.128;2024-02-23T22:35:34;3.02;;;1.20;;
15889;SDS011;8043;49.388;12.128;2024-02-23T22:40:36;2.95;;;2.02;;
15889;SDS011;8043;49.388;12.128;2024-02-23T22:45:38;3.55;;;1.98;;
15889;SDS011;8043;49.388;12.128;2024-02-23T22:50:40;6.17;;;4.00;;
15889;SDS011;8043;49.388;12.128;2024-02-23T22:55:43;1.52;;;1.25;;
15889;SDS011;8043;49.388;12.128;2024-02-23T23:00:45;3.42;;;1.25;;
15889;SDS011;8043;49.388;12.128;2024-02-23T23:05:48;1.80;;;1.70;;
15889;SDS011;8043;49.388;12.128;2024-02-23T23:10:51;4.85;;;1.80;;
15889;SDS011;8043;49.388;12.128;2024-02-23T23:15:53;16.97;;;4.90;;
15889;SDS011;8043;49.388;12.128;2024-02-23T23:20:56;21.30;;;5.62;;
15889;SDS011;8043;49.388;12.128;2024-02-23T23:25:59;12.80;;;4.47;;
15889;SDS011;8043;49.388;12.128;2024-02-23T23:31:02;3.67;;;1.65;;
15889;SDS011;8043;49.388;12.128;2024-02-23T23:36:05;1.25;;;1.15;;
15889;SDS011;8043;49.388;12.128;2024-02-23T23:46:09;1.23;;;0.93;;
15889;SDS011;8043;49.388;12.128;2024-02-23T23:51:12;1.47;;;1.15;;
15889;SDS011;8043;49.388;12.128;2024-02-23T23:56:14;2.00;;;1.02;;
